sensor_id;sensor_type;location;lat;lon;timestamp;pressure;altitude;pressure_sealevel;temperature;humidity
54882;BME280;40775;51.448;4.742;2022-09-17T00:01:23;101336.94;;;13.71;79.53
54882;BME280;40775;51.448;4.742;2022-09-17T00:03:53;101331.66;;;13.71;79.35
54882;BME280;40775;51.448;4.742;2022-09-17T00:06:23;101339.59;;;13.71;79.29
54882;BME280;40775;51.448;4.742;2022-09-17T00:08:52;101328.06;;;13.68;79.61
54882;BME280;40775;51.448;4.742;2022-09-17T00:11:30;101336.84;;;13.67;79.35
54882;BME280;40775;51.448;4.742;2022-09-17T00:14:00;101340.38;;;13.67;79.71
54882;BME280;40775;51.448;4.742;2022-09-17T00:16:34;101343.81;;;13.61;79.77
54882;BME280;40775;51.448;4.742;2022-09-17T00:19:04;101347.31;;;13.62;79.64
54882;BME280;40775;51.448;4.742;2022-09-17T00:21:31;101346.50;;;13.66;79.74
54882;BME280;40775;51.448;4.742;2022-09-17T00:24:02;101349.13;;;13.65;79.74
54882;BME280;40775;51.448;4.742;2022-09-17T00:26:31;101352.66;;;13.65;79.61
54882;BME280;40775;51.448;4.742;2022-09-17T00:29:00;101349.09;;;13.63;79.73
54882;BME280;40775;51.448;4.742;2022-09-17T00:31:28;101356.16;;;13.64;79.64
54882;BME280;40775;51.448;4.742;2022-09-17T00:33:58;101359.63;;;13.61;80.24
54882;BME280;40775;51.448;4.742;2022-09-17T00:36:25;101362.28;;;13.63;80.30
54882;BME280;40775;51.448;4.742;2022-09-17T00:38:56;101365.78;;;13.62;80.24
54882;BME280;40775;51.448;4.742;2022-09-17T00:41:28;101357.88;;;13.62;80.22
54882;BME280;40775;51.448;4.742;2022-09-17T00:43:59;101368.44;;;13.62;80.39
54882;BME280;40775;51.448;4.742;2022-09-17T00:46:42;101371.06;;;13.62;80.22
54882;BME280;40775;51.448;4.742;2022-09-17T00:49:22;101381.59;;;13.60;80.43
54882;BME280;40775;51.448;4.742;2022-09-17T00:54:27;101381.66;;;13.64;80.56
54882;BME280;40775;51.448;4.742;2022-09-17T00:56:55;101382.59;;;13.69;80.16
54882;BME280;40775;51.448;4.742;2022-09-17T00:59:24;101393.16;;;13.69;80.30
54882;BME280;40775;51.448;4.742;2022-09-17T01:01:51;101390.50;;;13.67;80.41
54882;BME280;40775;51.448;4.742;2022-09-17T01:04:22;101394.09;;;13.71;80.67
54882;BME280;40775;51.448;4.742;2022-09-17T01:15:42;101378.19;;;13.68;80.74
54882;BME280;40775;51.448;4.742;2022-09-17T01:22:16;101383.41;;;13.63;80.89
54882;BME280;40775;51.448;4.742;2022-09-17T01:34:19;101391.34;;;13.66;80.47
54882;BME280;40775;51.448;4.742;2022-09-17T01:37:22;101389.59;;;13.67;80.75
54882;BME280;40775;51.448;4.742;2022-09-17T01:40:37;101398.41;;;13.67;80.67
54882;BME280;40775;51.448;4.742;2022-09-17T01:43:45;101392.28;;;13.68;80.52
54882;BME280;40775;51.448;4.742;2022-09-17T01:46:35;101401.97;;;13.69;80.64
54882;BME280;40775;51.448;4.742;2022-09-17T01:49:07;101408.16;;;13.70;80.42
54882;BME280;40775;51.448;4.742;2022-09-17T01:51:40;101405.53;;;13.71;80.55
54882;BME280;40775;51.448;4.742;2022-09-17T01:54:33;101399.28;;;13.66;80.36
54882;BME280;40775;51.448;4.742;2022-09-17T01:57:25;101398.50;;;13.70;80.33
54882;BME280;40775;51.448;4.742;2022-09-17T02:00:05;101400.25;;;13.70;80.40
54882;BME280;40775;51.448;4.742;2022-09-17T02:03:24;101402.03;;;13.71;80.06
54882;BME280;40775;51.448;4.742;2022-09-17T02:05:49;101397.63;;;13.71;80.00
54882;BME280;40775;51.448;4.742;2022-09-17T02:08:25;101397.53;;;13.68;80.35
54882;BME280;40775;51.448;4.742;2022-09-17T02:11:07;101401.13;;;13.70;80.27
54882;BME280;40775;51.448;4.742;2022-09-17T02:16:34;101394.97;;;13.70;80.43
54882;BME280;40775;51.448;4.742;2022-09-17T02:19:24;101400.28;;;13.73;79.88
54882;BME280;40775;51.448;4.742;2022-09-17T02:22:20;101375.63;;;13.71;79.43
54882;BME280;40775;51.448;4.742;2022-09-17T02:30:14;101383.44;;;13.66;79.10
54882;BME280;40775;51.448;4.742;2022-09-17T02:32:42;101390.50;;;13.67;79.03
54882;BME280;40775;51.448;4.742;2022-09-17T02:35:10;101387.81;;;13.64;79.01
54882;BME280;40775;51.448;4.742;2022-09-17T02:37:43;101385.97;;;13.58;79.12
54882;BME280;40775;51.448;4.742;2022-09-17T02:40:14;101393.00;;;13.58;79.40
54882;BME280;40775;51.448;4.742;2022-09-17T02:43:09;101390.31;;;13.55;79.10
54882;BME280;40775;51.448;4.742;2022-09-17T02:52:14;101392.69;;;13.41;79.27
54882;BME280;40775;51.448;4.742;2022-09-17T02:55:06;101391.72;;;13.35;79.38
54882;BME280;40775;51.448;4.742;2022-09-17T02:58:35;101389.06;;;13.35;79.73
54882;BME280;40775;51.448;4.742;2022-09-17T03:01:41;101392.50;;;13.29;79.75
54882;BME280;40775;51.448;4.742;2022-09-17T03:04:12;101400.31;;;13.24;79.41
54882;BME280;40775;51.448;4.742;2022-09-17T03:06:44;101402.03;;;13.21;79.78
54882;BME280;40775;51.448;4.742;2022-09-17T03:09:14;101400.28;;;13.21;79.41
54882;BME280;40775;51.448;4.742;2022-09-17T03:11:41;101401.91;;;13.16;79.82
54882;BME280;40775;51.448;4.742;2022-09-17T03:14:08;101388.69;;;13.15;79.78
54882;BME280;40775;51.448;4.742;2022-09-17T03:16:35;101397.41;;;13.12;79.78
54882;BME280;40775;51.448;4.742;2022-09-17T03:19:03;101392.94;;;13.08;79.79
54882;BME280;40775;51.448;4.742;2022-09-17T03:21:30;101389.44;;;13.09;79.97
54882;BME280;40775;51.448;4.742;2022-09-17T03:23:57;101397.31;;;13.08;79.78
54882;BME280;40775;51.448;4.742;2022-09-17T03:26:28;101396.44;;;13.07;80.16
54882;BME280;40775;51.448;4.742;2022-09-17T03:28:56;101399.06;;;13.07;80.01
54882;BME280;40775;51.448;4.742;2022-09-17T03:31:24;101391.13;;;13.04;80.00
54882;BME280;40775;51.448;4.742;2022-09-17T03:33:51;101381.38;;;13.00;80.24
54882;BME280;40775;51.448;4.742;2022-09-17T03:36:18;101380.41;;;12.95;79.89
54882;BME280;40775;51.448;4.742;2022-09-17T03:38:46;101377.78;;;12.96;80.43
54882;BME280;40775;51.448;4.742;2022-09-17T03:41:13;101375.09;;;12.92;80.24
54882;BME280;40775;51.448;4.742;2022-09-17T03:43:40;101376.91;;;12.96;80.27
54882;BME280;40775;51.448;4.742;2022-09-17T03:46:07;101374.22;;;12.93;80.18
54882;BME280;40775;51.448;4.742;2022-09-17T03:48:35;101372.31;;;12.87;80.38
54882;BME280;40775;51.448;4.742;2022-09-17T03:51:03;101373.28;;;12.89;80.32
54882;BME280;40775;51.448;4.742;2022-09-17T03:53:31;101372.47;;;12.93;80.15
54882;BME280;40775;51.448;4.742;2022-09-17T03:56:00;101380.38;;;12.93;80.34
54882;BME280;40775;51.448;4.742;2022-09-17T03:58:29;101381.25;;;12.94;80.11
54882;BME280;40775;51.448;4.742;2022-09-17T04:00:56;101388.31;;;12.95;79.69
54882;BME280;40775;51.448;4.742;2022-09-17T04:03:25;101383.94;;;12.95;79.52
54882;BME280;40775;51.448;4.742;2022-09-17T04:05:52;101394.50;;;12.97;79.54
54882;BME280;40775;51.448;4.742;2022-09-17T04:08:20;101398.00;;;12.96;79.79
54882;BME280;40775;51.448;4.742;2022-09-17T04:10:47;101388.44;;;13.03;79.62
54882;BME280;40775;51.448;4.742;2022-09-17T04:13:15;101393.69;;;13.01;79.22
54882;BME280;40775;51.448;4.742;2022-09-17T04:15:44;101405.16;;;13.03;79.28
54882;BME280;40775;51.448;4.742;2022-09-17T04:18:12;101393.69;;;13.01;79.28
54882;BME280;40775;51.448;4.742;2022-09-17T04:20:40;101401.59;;;13.01;79.35
54882;BME280;40775;51.448;4.742;2022-09-17T04:23:12;101400.69;;;12.99;78.91
54882;BME280;40775;51.448;4.742;2022-09-17T04:25:39;101410.44;;;13.03;78.96
54882;BME280;40775;51.448;4.742;2022-09-17T04:28:06;101399.00;;;13.03;78.72
54882;BME280;40775;51.448;4.742;2022-09-17T04:30:34;101408.59;;;12.99;78.47
54882;BME280;40775;51.448;4.742;2022-09-17T04:33:02;101407.81;;;13.05;78.49
54882;BME280;40775;51.448;4.742;2022-09-17T04:35:29;101409.53;;;13.03;78.61
54882;BME280;40775;51.448;4.742;2022-09-17T04:37:57;101411.28;;;13.02;78.45
54882;BME280;40775;51.448;4.742;2022-09-17T04:40:26;101406.00;;;13.02;78.43
54882;BME280;40775;51.448;4.742;2022-09-17T04:42:55;101402.56;;;13.06;78.33
54882;BME280;40775;51.448;4.742;2022-09-17T04:45:23;101405.22;;;13.06;78.74
54882;BME280;40775;51.448;4.742;2022-09-17T04:47:50;101406.97;;;13.07;78.79
54882;BME280;40775;51.448;4.742;2022-09-17T04:50:18;101401.72;;;13.07;78.55
54882;BME280;40775;51.448;4.742;2022-09-17T04:52:46;101406.13;;;13.08;78.56
54882;BME280;40775;51.448;4.742;2022-09-17T04:55:15;101415.81;;;13.09;78.45
54882;BME280;40775;51.448;4.742;2022-09-17T04:57:51;101415.84;;;13.12;78.37
54882;BME280;40775;51.448;4.742;2022-09-17T05:00:21;101405.41;;;13.15;78.47
54882;BME280;40775;51.448;4.742;2022-09-17T05:02:53;101414.09;;;13.11;78.42
54882;BME280;40775;51.448;4.742;2022-09-17T05:05:21;101415.06;;;13.15;78.26
54882;BME280;40775;51.448;4.742;2022-09-17T05:07:49;101410.69;;;13.15;78.29
54882;BME280;40775;51.448;4.742;2022-09-17T05:10:18;101425.63;;;13.16;78.14
54882;BME280;40775;51.448;4.742;2022-09-17T05:12:53;101422.97;;;13.15;78.65
54882;BME280;40775;51.448;4.742;2022-09-17T05:15:23;101423.00;;;13.16;78.54
54882;BME280;40775;51.448;4.742;2022-09-17T05:17:50;101424.69;;;13.14;78.51
54882;BME280;40775;51.448;4.742;2022-09-17T05:20:18;101429.94;;;13.13;78.49
54882;BME280;40775;51.448;4.742;2022-09-17T05:22:48;101434.44;;;13.17;78.35
54882;BME280;40775;51.448;4.742;2022-09-17T05:25:20;101440.50;;;13.14;78.18
54882;BME280;40775;51.448;4.742;2022-09-17T05:27:51;101448.56;;;13.19;78.45
54882;BME280;40775;51.448;4.742;2022-09-17T05:30:19;101445.91;;;13.17;78.71
54882;BME280;40775;51.448;4.742;2022-09-17T05:32:47;101447.69;;;13.18;78.55
54882;BME280;40775;51.448;4.742;2022-09-17T05:35:14;101438.91;;;13.19;78.47
54882;BME280;40775;51.448;4.742;2022-09-17T05:37:42;101437.16;;;13.20;78.14
54882;BME280;40775;51.448;4.742;2022-09-17T05:40:09;101432.78;;;13.22;78.29
54882;BME280;40775;51.448;4.742;2022-09-17T05:42:36;101438.97;;;13.22;78.46
54882;BME280;40775;51.448;4.742;2022-09-17T05:45:04;101435.44;;;13.22;78.15
54882;BME280;40775;51.448;4.742;2022-09-17T05:47:31;101440.72;;;13.23;78.43
54882;BME280;40775;51.448;4.742;2022-09-17T05:49:58;101432.88;;;13.26;77.92
54882;BME280;40775;51.448;4.742;2022-09-17T05:52:27;101438.13;;;13.25;78.23
54882;BME280;40775;51.448;4.742;2022-09-17T05:54:55;101442.50;;;13.24;78.29
54882;BME280;40775;51.448;4.742;2022-09-17T05:57:23;101438.13;;;13.25;78.24
54882;BME280;40775;51.448;4.742;2022-09-17T05:59:50;101434.63;;;13.26;78.43
54882;BME280;40775;51.448;4.742;2022-09-17T06:02:17;101441.69;;;13.28;78.22
54882;BME280;40775;51.448;4.742;2022-09-17T06:04:45;101434.69;;;13.29;77.91
54882;BME280;40775;51.448;4.742;2022-09-17T06:07:12;101446.13;;;13.29;77.88
54882;BME280;40775;51.448;4.742;2022-09-17T06:09:39;101441.81;;;13.35;77.50
54882;BME280;40775;51.448;4.742;2022-09-17T06:12:07;101445.34;;;13.37;77.55
54882;BME280;40775;51.448;4.742;2022-09-17T06:14:34;101456.88;;;13.42;77.34
54882;BME280;40775;51.448;4.742;2022-09-17T06:17:01;101453.31;;;13.40;77.68
54882;BME280;40775;51.448;4.742;2022-09-17T06:19:28;101462.16;;;13.42;77.94
54882;BME280;40775;51.448;4.742;2022-09-17T06:21:55;101453.50;;;13.47;78.13
54882;BME280;40775;51.448;4.742;2022-09-17T06:24:23;101468.47;;;13.50;78.11
54882;BME280;40775;51.448;4.742;2022-09-17T06:26:51;101465.84;;;13.50;77.80
54882;BME280;40775;51.448;4.742;2022-09-17T06:29:19;101477.41;;;13.58;77.90
54882;BME280;40775;51.448;4.742;2022-09-17T06:31:47;101497.75;;;13.65;77.78
54882;BME280;40775;51.448;4.742;2022-09-17T06:34:15;101516.38;;;13.71;78.21
54882;BME280;40775;51.448;4.742;2022-09-17T06:36:42;101484.69;;;13.70;79.17
54882;BME280;40775;51.448;4.742;2022-09-17T06:39:10;101490.69;;;13.63;79.01
54882;BME280;40775;51.448;4.742;2022-09-17T06:41:37;101480.06;;;13.58;78.52
54882;BME280;40775;51.448;4.742;2022-09-17T06:44:05;101474.81;;;13.59;77.94
54882;BME280;40775;51.448;4.742;2022-09-17T06:46:32;101473.13;;;13.65;77.44
54882;BME280;40775;51.448;4.742;2022-09-17T06:48:59;101482.06;;;13.71;77.20
54882;BME280;40775;51.448;4.742;2022-09-17T06:51:26;101485.63;;;13.73;77.24
54882;BME280;40775;51.448;4.742;2022-09-17T06:53:53;101482.06;;;13.71;77.09
54882;BME280;40775;51.448;4.742;2022-09-17T06:56:20;101486.53;;;13.75;77.01
54882;BME280;40775;51.448;4.742;2022-09-17T06:58:47;101488.28;;;13.75;77.15
54882;BME280;40775;51.448;4.742;2022-09-17T07:01:14;101495.28;;;13.73;77.00
54882;BME280;40775;51.448;4.742;2022-09-17T07:03:42;101499.81;;;13.81;77.34
54882;BME280;40775;51.448;4.742;2022-09-17T07:06:09;101497.22;;;13.83;77.55
54882;BME280;40775;51.448;4.742;2022-09-17T07:08:37;101487.53;;;13.82;77.80
54882;BME280;40775;51.448;4.742;2022-09-17T07:11:05;101491.97;;;13.84;77.66
54882;BME280;40775;51.448;4.742;2022-09-17T07:13:32;101483.25;;;13.90;77.95
54882;BME280;40775;51.448;4.742;2022-09-17T07:16:01;101471.81;;;13.89;77.93
54882;BME280;40775;51.448;4.742;2022-09-17T07:18:29;101485.97;;;13.95;77.70
54882;BME280;40775;51.448;4.742;2022-09-17T07:20:59;101478.03;;;13.95;77.69
54882;BME280;40775;51.448;4.742;2022-09-17T07:23:36;101487.72;;;13.94;77.74
54882;BME280;40775;51.448;4.742;2022-09-17T07:26:07;101482.47;;;13.96;78.37
54882;BME280;40775;51.448;4.742;2022-09-17T07:28:39;101493.88;;;13.95;78.45
54882;BME280;40775;51.448;4.742;2022-09-17T07:31:07;101486.03;;;13.98;78.04
54882;BME280;40775;51.448;4.742;2022-09-17T07:33:42;101491.44;;;14.05;78.32
54882;BME280;40775;51.448;4.742;2022-09-17T07:36:14;101499.50;;;14.14;78.29
54882;BME280;40775;51.448;4.742;2022-09-17T07:38:44;101493.41;;;14.20;78.72
54882;BME280;40775;51.448;4.742;2022-09-17T07:41:16;101490.81;;;14.23;78.59
54882;BME280;40775;51.448;4.742;2022-09-17T07:43:44;101497.97;;;14.29;78.09
54882;BME280;40775;51.448;4.742;2022-09-17T07:46:17;101492.06;;;14.43;78.73
54882;BME280;40775;51.448;4.742;2022-09-17T07:48:45;101512.50;;;14.53;79.22
54882;BME280;40775;51.448;4.742;2022-09-17T07:51:22;101500.94;;;14.48;78.01
54882;BME280;40775;51.448;4.742;2022-09-17T07:53:56;101499.28;;;14.53;77.92
54882;BME280;40775;51.448;4.742;2022-09-17T07:56:25;101494.19;;;14.67;78.44
54882;BME280;40775;51.448;4.742;2022-09-17T07:58:53;101499.47;;;14.67;77.89
54882;BME280;40775;51.448;4.742;2022-09-17T08:01:21;101496.94;;;14.78;77.94
54882;BME280;40775;51.448;4.742;2022-09-17T08:03:51;101496.22;;;14.88;78.08
54882;BME280;40775;51.448;4.742;2022-09-17T08:06:24;101495.38;;;14.91;77.18
54882;BME280;40775;51.448;4.742;2022-09-17T08:08:57;101518.47;;;16.98;74.91
54882;BME280;40775;51.448;4.742;2022-09-17T08:11:29;101509.91;;;17.74;72.12
54882;BME280;40775;51.448;4.742;2022-09-17T08:14:16;101512.59;;;18.35;68.85
54882;BME280;40775;51.448;4.742;2022-09-17T08:16:43;101510.75;;;18.86;66.72
54882;BME280;40775;51.448;4.742;2022-09-17T08:19:13;101514.22;;;19.10;64.91
54882;BME280;40775;51.448;4.742;2022-09-17T08:21:40;101508.00;;;19.18;63.23
54882;BME280;40775;51.448;4.742;2022-09-17T08:24:07;101500.91;;;19.18;61.68
54882;BME280;40775;51.448;4.742;2022-09-17T08:26:34;101506.97;;;19.40;61.26
54882;BME280;40775;51.448;4.742;2022-09-17T08:29:01;101497.19;;;19.45;60.50
54882;BME280;40775;51.448;4.742;2022-09-17T08:31:28;101505.16;;;19.50;60.10
54882;BME280;40775;51.448;4.742;2022-09-17T08:33:56;101513.13;;;19.59;59.49
54882;BME280;40775;51.448;4.742;2022-09-17T08:36:24;101512.16;;;19.70;59.03
54882;BME280;40775;51.448;4.742;2022-09-17T08:38:54;101503.19;;;19.85;58.64
54882;BME280;40775;51.448;4.742;2022-09-17T08:44:59;101503.09;;;19.93;58.07
54882;BME280;40775;51.448;4.742;2022-09-17T08:47:41;101502.22;;;19.94;57.73
54882;BME280;40775;51.448;4.742;2022-09-17T08:50:26;101494.03;;;20.15;57.96
54882;BME280;40775;51.448;4.742;2022-09-17T08:53:00;101495.75;;;20.22;57.98
54882;BME280;40775;51.448;4.742;2022-09-17T08:56:09;101487.59;;;20.39;58.54
54882;BME280;40775;51.448;4.742;2022-09-17T08:58:56;101491.06;;;20.52;59.85
54882;BME280;40775;51.448;4.742;2022-09-17T09:01:48;101498.44;;;20.19;58.37
54882;BME280;40775;51.448;4.742;2022-09-17T09:07:39;101507.59;;;19.88;57.52
54882;BME280;40775;51.448;4.742;2022-09-17T09:10:44;101515.50;;;20.00;57.70
54882;BME280;40775;51.448;4.742;2022-09-17T09:13:18;101512.63;;;20.24;57.51
54882;BME280;40775;51.448;4.742;2022-09-17T09:18:29;101513.41;;;20.38;57.58
54882;BME280;40775;51.448;4.742;2022-09-17T09:21:42;101514.28;;;20.41;57.91
54882;BME280;40775;51.448;4.742;2022-09-17T09:24:17;101529.47;;;20.31;58.07
54882;BME280;40775;51.448;4.742;2022-09-17T09:30:11;101524.16;;;20.25;58.07
54882;BME280;40775;51.448;4.742;2022-09-17T09:33:14;101533.16;;;20.15;58.17
54882;BME280;40775;51.448;4.742;2022-09-17T09:35:43;101532.31;;;20.10;58.24
54882;BME280;40775;51.448;4.742;2022-09-17T09:38:42;101539.41;;;20.12;58.09
54882;BME280;40775;51.448;4.742;2022-09-17T09:41:51;101536.75;;;20.11;58.61
54882;BME280;40775;51.448;4.742;2022-09-17T09:44:23;101535.88;;;20.07;58.71
54882;BME280;40775;51.448;4.742;2022-09-17T09:57:46;101527.72;;;20.30;59.26
54882;BME280;40775;51.448;4.742;2022-09-17T10:00:37;101528.47;;;20.44;59.09
54882;BME280;40775;51.448;4.742;2022-09-17T10:05:37;101531.03;;;20.58;58.91
54882;BME280;40775;51.448;4.742;2022-09-17T10:08:14;101536.38;;;20.53;59.04
54882;BME280;40775;51.448;4.742;2022-09-17T10:11:04;101543.50;;;20.53;59.06
54882;BME280;40775;51.448;4.742;2022-09-17T10:13:34;101544.56;;;20.33;58.61
54882;BME280;40775;51.448;4.742;2022-09-17T10:16:27;101535.00;;;20.06;57.98
54882;BME280;40775;51.448;4.742;2022-09-17T10:21:41;101562.63;;;19.93;57.22
54882;BME280;40775;51.448;4.742;2022-09-17T10:24:27;101554.59;;;19.96;57.35
54882;BME280;40775;51.448;4.742;2022-09-17T10:27:12;101545.50;;;20.23;57.24
54882;BME280;40775;51.448;4.742;2022-09-17T10:29:45;101538.34;;;20.33;57.23
54882;BME280;40775;51.448;4.742;2022-09-17T10:32:20;101540.09;;;20.40;57.53
54882;BME280;40775;51.448;4.742;2022-09-17T10:37:48;101525.81;;;20.40;57.38
54882;BME280;40775;51.448;4.742;2022-09-17T10:42:48;101529.28;;;20.55;57.66
54882;BME280;40775;51.448;4.742;2022-09-17T10:45:27;101526.63;;;20.51;58.16
54882;BME280;40775;51.448;4.742;2022-09-17T10:47:56;101529.25;;;20.58;57.91
54882;BME280;40775;51.448;4.742;2022-09-17T10:50:31;101528.34;;;20.61;57.98
54882;BME280;40775;51.448;4.742;2022-09-17T10:53:05;101533.66;;;20.61;58.04
54882;BME280;40775;51.448;4.742;2022-09-17T11:09:40;101507.91;;;20.54;56.98
54882;BME280;40775;51.448;4.742;2022-09-17T11:18:28;101501.91;;;20.30;56.14
54882;BME280;40775;51.448;4.742;2022-09-17T11:27:16;101495.31;;;20.71;56.04
54882;BME280;40775;51.448;4.742;2022-09-17T11:33:19;101496.38;;;20.56;56.16
54882;BME280;40775;51.448;4.742;2022-09-17T11:35:58;101491.91;;;20.54;55.90
54882;BME280;40775;51.448;4.742;2022-09-17T11:38:39;101505.06;;;20.74;55.89
54882;BME280;40775;51.448;4.742;2022-09-17T11:41:35;101489.16;;;20.64;55.96
54882;BME280;40775;51.448;4.742;2022-09-17T11:44:25;101493.50;;;20.72;55.82
54882;BME280;40775;51.448;4.742;2022-09-17T11:47:36;101491.63;;;20.80;55.86
54882;BME280;40775;51.448;4.742;2022-09-17T11:50:27;101493.59;;;20.65;56.11
54882;BME280;40775;51.448;4.742;2022-09-17T11:55:59;101491.09;;;20.49;55.83
54882;BME280;40775;51.448;4.742;2022-09-17T12:01:59;101491.88;;;20.61;56.58
54882;BME280;40775;51.448;4.742;2022-09-17T12:13:28;101488.81;;;20.93;58.36
54882;BME280;40775;51.448;4.742;2022-09-17T12:16:17;101503.78;;;21.05;58.85
54882;BME280;40775;51.448;4.742;2022-09-17T12:22:05;101482.44;;;21.05;58.75
54882;BME280;40775;51.448;4.742;2022-09-17T12:24:35;101482.44;;;21.05;59.09
54882;BME280;40775;51.448;4.742;2022-09-17T12:27:08;101468.09;;;21.15;59.80
54882;BME280;40775;51.448;4.742;2022-09-17T12:39:02;101499.53;;;19.95;50.60
54882;BME280;40775;51.448;4.742;2022-09-17T12:41:45;101497.56;;;20.19;50.87
54882;BME280;40775;51.448;4.742;2022-09-17T12:47:49;101489.25;;;20.52;49.68
54882;BME280;40775;51.448;4.742;2022-09-17T12:53:27;101481.19;;;20.61;48.93
54882;BME280;40775;51.448;4.742;2022-09-17T12:56:26;101485.63;;;20.62;47.61
54882;BME280;40775;51.448;4.742;2022-09-17T12:59:12;101492.72;;;20.65;47.79
54882;BME280;40775;51.448;4.742;2022-09-17T13:02:24;101486.28;;;20.81;48.52
54882;BME280;40775;51.448;4.742;2022-09-17T13:11:11;101483.78;;;20.67;49.99
54882;BME280;40775;51.448;4.742;2022-09-17T13:17:10;101529.47;;;20.31;49.78
54882;BME280;40775;51.448;4.742;2022-09-17T13:19:53;101511.63;;;20.41;50.43
54882;BME280;40775;51.448;4.742;2022-09-17T13:22:28;101505.38;;;20.42;48.65
54882;BME280;40775;51.448;4.742;2022-09-17T13:25:08;101493.50;;;20.72;48.57
54882;BME280;40775;51.448;4.742;2022-09-17T13:27:38;101500.47;;;20.86;49.47
54882;BME280;40775;51.448;4.742;2022-09-17T13:30:10;101500.34;;;20.95;50.22
54882;BME280;40775;51.448;4.742;2022-09-17T13:40:32;101503.88;;;20.99;52.71
54882;BME280;40775;51.448;4.742;2022-09-17T13:45:30;101493.19;;;20.99;53.41
54882;BME280;40775;51.448;4.742;2022-09-17T13:48:03;101489.13;;;20.67;51.75
54882;BME280;40775;51.448;4.742;2022-09-17T13:50:39;101503.59;;;20.39;50.32
54882;BME280;40775;51.448;4.742;2022-09-17T13:55:54;101498.16;;;20.51;48.72
54882;BME280;40775;51.448;4.742;2022-09-17T13:58:29;101490.94;;;20.64;48.34
54882;BME280;40775;51.448;4.742;2022-09-17T14:01:10;101496.06;;;20.84;48.31
54882;BME280;40775;51.448;4.742;2022-09-17T14:24:38;101513.53;;;21.08;48.33
54882;BME280;40775;51.448;4.742;2022-09-17T14:27:57;101505.88;;;20.79;45.03
54882;BME280;40775;51.448;4.742;2022-09-17T14:30:32;101509.38;;;20.87;44.98
54882;BME280;40775;51.448;4.742;2022-09-17T14:35:43;101511.91;;;20.97;44.31
54882;BME280;40775;51.448;4.742;2022-09-17T14:41:06;101512.91;;;20.89;42.97
54882;BME280;40775;51.448;4.742;2022-09-17T14:44:12;101504.06;;;20.85;43.33
54882;BME280;40775;51.448;4.742;2022-09-17T14:47:17;101511.81;;;21.05;43.63
54882;BME280;40775;51.448;4.742;2022-09-17T14:49:43;101505.41;;;21.18;44.29
54882;BME280;40775;51.448;4.742;2022-09-17T14:52:31;101504.66;;;21.10;44.88
54882;BME280;40775;51.448;4.742;2022-09-17T14:57:52;101494.75;;;21.18;44.74
54882;BME280;40775;51.448;4.742;2022-09-17T15:00:35;101498.28;;;21.19;45.82
54882;BME280;40775;51.448;4.742;2022-09-17T15:03:04;101491.22;;;21.16;44.85
54882;BME280;40775;51.448;4.742;2022-09-17T15:05:36;101495.81;;;21.04;44.61
54882;BME280;40775;51.448;4.742;2022-09-17T15:11:00;101494.97;;;21.00;46.01
54882;BME280;40775;51.448;4.742;2022-09-17T15:13:41;101495.91;;;20.96;46.27
54882;BME280;40775;51.448;4.742;2022-09-17T15:16:28;101492.31;;;20.98;46.71
54882;BME280;40775;51.448;4.742;2022-09-17T15:19:01;101494.84;;;21.11;46.98
54882;BME280;40775;51.448;4.742;2022-09-17T15:21:39;101487.63;;;21.17;47.44
54882;BME280;40775;51.448;4.742;2022-09-17T15:24:34;101490.25;;;21.22;47.26
54882;BME280;40775;51.448;4.742;2022-09-17T15:27:15;101488.41;;;21.27;47.33
54882;BME280;40775;51.448;4.742;2022-09-17T15:29:50;101485.72;;;21.28;47.67
54882;BME280;40775;51.448;4.742;2022-09-17T15:32:20;101483.91;;;21.31;47.28
54882;BME280;40775;51.448;4.742;2022-09-17T15:37:47;101484.06;;;21.18;45.70
54882;BME280;40775;51.448;4.742;2022-09-17T15:40:39;101492.19;;;21.11;45.41
54882;BME280;40775;51.448;4.742;2022-09-17T15:43:31;101493.28;;;20.93;44.16
54882;BME280;40775;51.448;4.742;2022-09-17T15:46:28;101499.47;;;20.96;43.82
54882;BME280;40775;51.448;4.742;2022-09-17T15:49:01;101499.00;;;20.59;41.09
54882;BME280;40775;51.448;4.742;2022-09-17T15:51:34;101491.03;;;20.56;40.61
54882;BME280;40775;51.448;4.742;2022-09-17T15:54:04;101505.91;;;20.76;40.45
54882;BME280;40775;51.448;4.742;2022-09-17T15:56:34;101498.03;;;20.66;40.68
54882;BME280;40775;51.448;4.742;2022-09-17T15:59:24;101493.28;;;20.93;40.75
54882;BME280;40775;51.448;4.742;2022-09-17T16:01:55;101499.47;;;20.96;40.87
54882;BME280;40775;51.448;4.742;2022-09-17T16:04:33;101503.75;;;21.08;41.08
54882;BME280;40775;51.448;4.742;2022-09-17T16:07:18;101514.44;;;21.10;41.80
54882;BME280;40775;51.448;4.742;2022-09-17T16:09:51;101504.59;;;21.13;42.26
54882;BME280;40775;51.448;4.742;2022-09-17T16:12:22;101504.47;;;21.22;42.25
54882;BME280;40775;51.448;4.742;2022-09-17T16:14:52;101513.38;;;21.24;42.83
54882;BME280;40775;51.448;4.742;2022-09-17T16:17:43;101510.88;;;21.11;43.52
54882;BME280;40775;51.448;4.742;2022-09-17T16:22:43;101509.09;;;21.08;44.97
54882;BME280;40775;51.448;4.742;2022-09-17T16:25:11;101501.19;;;21.01;46.13
54882;BME280;40775;51.448;4.742;2022-09-17T16:30:16;101514.72;;;20.85;46.68
54882;BME280;40775;51.448;4.742;2022-09-17T16:32:44;101520.28;;;20.65;47.53
54882;BME280;40775;51.448;4.742;2022-09-17T16:35:17;101530.00;;;20.70;47.65
54882;BME280;40775;51.448;4.742;2022-09-17T16:37:49;101528.84;;;20.95;47.22
54882;BME280;40775;51.448;4.742;2022-09-17T16:40:18;101528.69;;;21.10;47.42
54882;BME280;40775;51.448;4.742;2022-09-17T16:42:46;101537.56;;;21.08;47.64
54882;BME280;40775;51.448;4.742;2022-09-17T16:45:14;101535.88;;;21.02;47.86
54882;BME280;40775;51.448;4.742;2022-09-17T16:47:42;101537.78;;;20.91;48.32
54882;BME280;40775;51.448;4.742;2022-09-17T16:50:13;101535.88;;;21.01;48.49